createdAt,value
2019-05-26T00:00:10.618Z,3.70
2019-05-26T00:02:39.802Z,4.20
2019-05-26T00:05:10.226Z,5.97
2019-05-26T00:07:39.472Z,4.17
2019-05-26T00:10:09.823Z,4.47
2019-05-26T00:12:38.861Z,4.10
2019-05-26T00:15:08.593Z,5.40
2019-05-26T00:17:38.154Z,4.70
2019-05-26T00:20:08.459Z,4.10
2019-05-26T00:22:37.597Z,4.20
2019-05-26T00:25:08.118Z,4.27
2019-05-26T00:27:37.817Z,4.07
2019-05-26T00:30:08.791Z,4.57
2019-05-26T00:32:37.951Z,3.77
2019-05-26T00:35:07.690Z,3.50
2019-05-26T00:37:48.392Z,4.17
2019-05-26T00:40:08.298Z,4.90
2019-05-26T00:42:37.484Z,4.53
2019-05-26T00:45:07.811Z,4.27
2019-05-26T00:47:36.695Z,5.40
2019-05-26T00:50:09.066Z,4.30
2019-05-26T00:52:38.314Z,5.03
2019-05-26T00:55:10.879Z,5.80
2019-05-26T00:57:40.038Z,5.77
2019-05-26T01:00:12.248Z,4.17
2019-05-26T01:02:41.742Z,4.40
2019-05-26T01:05:11.169Z,4.87
2019-05-26T01:07:40.484Z,5.07
2019-05-26T01:10:10.031Z,4.77
2019-05-26T01:12:39.684Z,4.17
2019-05-26T01:15:10.643Z,4.10
2019-05-26T01:17:39.834Z,4.20
2019-05-26T01:20:09.182Z,3.70
2019-05-26T01:22:39.035Z,4.23
2019-05-26T01:25:08.482Z,3.80
2019-05-26T01:27:37.608Z,5.07
2019-05-26T01:30:07.644Z,4.17
2019-05-26T01:32:37.267Z,4.40
2019-05-26T01:35:08.067Z,5.00
2019-05-26T01:37:38.679Z,4.80
2019-05-26T01:40:08.176Z,4.23
2019-05-26T01:42:38.174Z,4.50
2019-05-26T01:45:09.938Z,4.87
2019-05-26T01:47:39.066Z,4.00
2019-05-26T01:50:08.444Z,4.90
2019-05-26T01:52:37.702Z,4.73
2019-05-26T01:55:07.282Z,4.93
2019-05-26T01:57:36.628Z,4.67
2019-05-26T02:00:06.756Z,6.40
2019-05-26T02:02:37.071Z,5.10
2019-05-26T02:05:06.228Z,6.00
2019-05-26T02:07:35.809Z,6.20
2019-05-26T02:10:06.646Z,6.07
2019-05-26T02:12:35.753Z,5.10
2019-05-26T02:15:06.947Z,4.80
2019-05-26T02:17:36.116Z,4.90
2019-05-26T02:20:11.291Z,4.17
2019-05-26T02:22:40.518Z,4.43
2019-05-26T02:25:10.095Z,4.60
2019-05-26T02:27:39.158Z,4.50
2019-05-26T02:30:11.115Z,4.50
2019-05-26T02:32:40.358Z,5.40
2019-05-26T02:35:09.862Z,5.50
2019-05-26T02:37:39.292Z,5.10
2019-05-26T02:40:09.177Z,4.40
2019-05-26T02:42:38.631Z,4.60
2019-05-26T02:45:12.342Z,4.57
2019-05-26T02:47:41.592Z,5.83
2019-05-26T02:50:10.811Z,4.30
2019-05-26T02:52:40.274Z,4.20
2019-05-26T02:55:09.820Z,4.83
2019-05-26T02:57:39.334Z,3.77
2019-05-26T03:00:10.650Z,3.53
2019-05-26T03:02:40.007Z,4.30
2019-05-26T03:05:11.225Z,4.70
2019-05-26T03:07:42.469Z,3.70
2019-05-26T03:10:14.195Z,3.87
2019-05-26T03:12:43.732Z,4.03
2019-05-26T03:15:13.845Z,4.10
2019-05-26T03:17:43.255Z,4.17
2019-05-26T03:20:14.092Z,4.30
2019-05-26T03:22:44.636Z,3.40
2019-05-26T03:25:14.009Z,4.70
2019-05-26T03:27:43.283Z,3.83
2019-05-26T03:30:12.257Z,4.00
2019-05-26T03:32:41.378Z,3.37
2019-05-26T03:35:10.711Z,4.30
2019-05-26T03:37:40.001Z,3.80
2019-05-26T03:40:20.422Z,4.40
2019-05-26T03:42:49.681Z,4.00
2019-05-26T03:45:41.467Z,3.43
2019-05-26T03:48:10.583Z,11.40
2019-05-26T03:50:39.871Z,35.83
2019-05-26T03:53:09.281Z,7.37
2019-05-26T03:55:38.375Z,4.37
2019-05-26T03:58:16.755Z,4.50
2019-05-26T04:00:46.379Z,4.17
2019-05-26T04:03:15.358Z,4.63
2019-05-26T04:05:44.883Z,4.40
2019-05-26T04:08:14.252Z,4.53
2019-05-26T04:10:43.697Z,5.00
2019-05-26T04:13:13.024Z,4.27
2019-05-26T04:15:42.202Z,4.40
2019-05-26T04:18:11.903Z,4.57
2019-05-26T04:20:45.573Z,4.33
2019-05-26T04:23:12.239Z,3.70
2019-05-26T04:25:41.651Z,4.23
2019-05-26T04:28:11.112Z,3.63
2019-05-26T04:30:40.241Z,4.63
2019-05-26T04:33:09.419Z,5.67
2019-05-26T04:35:38.729Z,4.07
2019-05-26T04:38:07.846Z,4.43
2019-05-26T04:40:37.143Z,5.00
2019-05-26T04:43:06.277Z,5.60
2019-05-26T04:45:36.499Z,5.27
2019-05-26T04:48:07.140Z,4.50
2019-05-26T04:50:36.371Z,4.60
2019-05-26T04:53:07.247Z,4.47
2019-05-26T04:55:36.106Z,3.93
2019-05-26T04:58:05.574Z,3.80
2019-05-26T05:00:34.620Z,4.37
2019-05-26T05:03:04.154Z,4.13
2019-05-26T05:05:33.619Z,4.40
2019-05-26T05:08:03.359Z,4.87
2019-05-26T05:10:41.775Z,5.10
2019-05-26T05:13:03.248Z,4.30
2019-05-26T05:15:32.528Z,4.90
2019-05-26T05:18:01.719Z,4.90
2019-05-26T05:20:30.815Z,4.87
2019-05-26T05:23:01.054Z,5.07
2019-05-26T05:25:30.491Z,5.50
2019-05-26T05:27:59.812Z,5.20
2019-05-26T05:30:30.090Z,4.80
2019-05-26T05:32:59.382Z,5.57
2019-05-26T05:35:28.624Z,6.03
2019-05-26T05:37:58.991Z,9.17
2019-05-26T05:40:28.356Z,7.07
2019-05-26T05:42:57.699Z,7.27
2019-05-26T05:45:27.103Z,7.50
2019-05-26T05:47:56.259Z,8.00
2019-05-26T05:50:25.301Z,5.80
2019-05-26T05:52:54.611Z,5.23
2019-05-26T05:55:23.980Z,5.07
2019-05-26T05:57:53.377Z,4.80
2019-05-26T06:00:23.684Z,4.60
2019-05-26T06:02:52.818Z,5.60
2019-05-26T06:05:22.117Z,4.63
2019-05-26T06:07:52.346Z,4.90
2019-05-26T06:10:21.551Z,5.50
2019-05-26T06:12:51.153Z,5.37
2019-05-26T06:15:20.783Z,5.43
2019-05-26T06:17:50.399Z,6.50
2019-05-26T06:20:19.963Z,4.40
2019-05-26T06:22:49.130Z,4.60
2019-05-26T06:25:18.530Z,4.70
2019-05-26T06:27:47.978Z,5.00
2019-05-26T06:30:17.279Z,4.53
2019-05-26T06:32:46.486Z,4.30
2019-05-26T06:35:15.524Z,4.67
2019-05-26T06:37:44.778Z,4.63
2019-05-26T06:40:14.472Z,4.53
2019-05-26T06:45:35.413Z,4.03
2019-05-26T06:48:04.567Z,4.87
2019-05-26T06:50:33.847Z,4.40
2019-05-26T06:53:02.969Z,4.30
2019-05-26T06:55:32.389Z,3.90
2019-05-26T06:58:01.776Z,4.80
2019-05-26T07:00:31.210Z,4.33
2019-05-26T07:03:00.355Z,4.17
2019-05-26T07:05:29.485Z,4.20
2019-05-26T07:07:59.729Z,4.47
2019-05-26T07:10:29.508Z,4.23
2019-05-26T07:12:58.905Z,4.97
2019-05-26T07:15:27.971Z,5.07
2019-05-26T07:17:56.759Z,4.63
2019-05-26T07:20:26.337Z,4.27
2019-05-26T07:22:55.791Z,5.57
2019-05-26T07:25:24.643Z,5.10
2019-05-26T07:27:53.643Z,3.93
2019-05-26T07:30:23.610Z,4.90
2019-05-26T07:32:52.968Z,4.67
2019-05-26T07:35:22.301Z,5.80
2019-05-26T07:37:51.692Z,5.00
2019-05-26T07:40:21.073Z,4.10
2019-05-26T07:42:51.699Z,4.63
2019-05-26T07:45:20.834Z,4.73
2019-05-26T07:47:49.829Z,4.10
2019-05-26T07:50:18.914Z,5.33
2019-05-26T07:52:47.865Z,4.83
2019-05-26T07:55:16.950Z,4.70
2019-05-26T07:57:46.119Z,5.00
2019-05-26T08:00:15.503Z,4.87
2019-05-26T08:02:44.543Z,5.93
2019-05-26T08:05:13.750Z,4.90
2019-05-26T08:07:49.379Z,5.10
2019-05-26T08:10:18.809Z,5.43
2019-05-26T08:12:48.011Z,5.50
2019-05-26T08:15:17.327Z,5.17
2019-05-26T08:17:46.773Z,5.37
2019-05-26T08:22:57.210Z,5.57
2019-05-26T08:25:27.708Z,4.93
2019-05-26T08:27:56.864Z,4.90
2019-05-26T08:30:25.887Z,5.93
2019-05-26T08:32:54.893Z,5.10
2019-05-26T08:35:24.948Z,6.07
2019-05-26T08:37:54.215Z,5.20
2019-05-26T08:40:23.535Z,5.50
2019-05-26T08:42:52.980Z,6.00
2019-05-26T08:45:23.285Z,5.50
2019-05-26T08:47:52.587Z,6.03
2019-05-26T08:50:22.233Z,5.77
2019-05-26T08:52:51.227Z,6.00
2019-05-26T08:55:20.340Z,5.53
2019-05-26T08:57:49.417Z,6.13
2019-05-26T09:00:19.187Z,5.97
2019-05-26T09:02:49.211Z,5.93
2019-05-26T09:05:18.215Z,6.03
2019-05-26T09:07:47.246Z,5.57
2019-05-26T09:10:16.957Z,6.80
2019-05-26T09:12:59.720Z,6.07
2019-05-26T09:15:17.251Z,5.80
2019-05-26T09:17:46.302Z,6.53
2019-05-26T09:20:15.966Z,5.80
2019-05-26T09:22:44.958Z,6.13
2019-05-26T09:25:14.390Z,6.20
2019-05-26T09:27:43.671Z,6.67
2019-05-26T09:30:13.074Z,6.10
2019-05-26T09:32:42.383Z,6.67
2019-05-26T09:35:11.574Z,6.50
2019-05-26T09:37:41.053Z,5.57
2019-05-26T09:40:10.484Z,6.07
2019-05-26T09:42:39.772Z,7.47
2019-05-26T09:45:09.657Z,6.20
2019-05-26T09:47:39.190Z,5.27
2019-05-26T09:50:08.570Z,6.60
2019-05-26T09:52:38.027Z,5.97
2019-05-26T09:55:08.009Z,7.20
2019-05-26T09:57:37.203Z,5.60
2019-05-26T10:00:07.083Z,6.10
2019-05-26T10:02:36.416Z,6.50
2019-05-26T10:05:09.707Z,6.63
2019-05-26T10:07:38.840Z,7.20
2019-05-26T10:10:08.593Z,6.60
2019-05-26T10:12:37.822Z,5.67
2019-05-26T10:15:07.342Z,6.50
2019-05-26T10:17:36.639Z,5.23
2019-05-26T10:20:10.038Z,6.33
2019-05-26T10:22:39.562Z,5.50
2019-05-26T10:25:08.893Z,5.83
2019-05-26T10:27:37.806Z,7.03
2019-05-26T10:30:10.776Z,6.20
2019-05-26T10:32:39.868Z,5.77
2019-05-26T10:35:10.258Z,6.37
2019-05-26T10:37:39.618Z,6.23
2019-05-26T10:40:09.150Z,5.63
2019-05-26T10:42:38.459Z,5.43
2019-05-26T10:45:09.424Z,5.80
2019-05-26T10:47:38.902Z,5.57
2019-05-26T10:50:09.054Z,5.33
2019-05-26T10:52:38.134Z,6.40
2019-05-26T10:55:08.007Z,6.60
2019-05-26T10:57:37.394Z,6.60
2019-05-26T11:00:08.668Z,6.67
2019-05-26T11:02:38.715Z,5.77
2019-05-26T11:05:08.655Z,6.53
2019-05-26T11:07:37.759Z,6.43
2019-05-26T11:10:07.811Z,6.50
2019-05-26T11:12:37.420Z,7.00
2019-05-26T11:15:10.285Z,7.60
2019-05-26T11:17:39.449Z,6.20
2019-05-26T11:20:10.542Z,6.63
2019-05-26T11:22:39.813Z,7.03
2019-05-26T11:25:09.399Z,8.27
2019-05-26T11:27:38.495Z,6.83
2019-05-26T11:30:10.444Z,6.47
2019-05-26T11:32:39.797Z,6.70
2019-05-26T11:35:09.416Z,5.70
2019-05-26T11:37:38.701Z,5.70
2019-05-26T11:40:08.485Z,7.10
2019-05-26T11:42:37.681Z,6.27
2019-05-26T11:45:09.054Z,6.87
2019-05-26T11:47:38.354Z,7.10
2019-05-26T11:50:11.510Z,7.23
2019-05-26T11:52:40.724Z,6.30
2019-05-26T11:55:10.050Z,6.23
2019-05-26T12:00:17.223Z,6.00
2019-05-26T12:05:26.419Z,7.23
2019-05-26T12:07:55.671Z,6.00
2019-05-26T12:10:25.055Z,6.70
2019-05-26T12:12:54.404Z,8.90
2019-05-26T12:15:24.388Z,6.50
2019-05-26T12:17:53.822Z,6.60
2019-05-26T12:20:23.275Z,6.50
2019-05-26T12:22:52.706Z,5.53
2019-05-26T12:25:21.883Z,7.17
2019-05-26T12:27:51.221Z,6.33
2019-05-26T12:30:21.272Z,6.83
2019-05-26T12:32:50.391Z,6.40
2019-05-26T12:35:19.538Z,6.30
2019-05-26T12:37:48.723Z,6.87
2019-05-26T12:40:19.285Z,7.13
2019-05-26T12:42:48.503Z,6.10
2019-05-26T12:45:17.902Z,6.70
2019-05-26T12:47:47.245Z,7.20
2019-05-26T12:50:16.307Z,7.70
2019-05-26T12:52:45.636Z,7.70
2019-05-26T12:55:14.839Z,6.90
2019-05-26T12:57:44.239Z,6.70
2019-05-26T13:00:13.694Z,7.60
2019-05-26T13:02:42.848Z,8.07
2019-05-26T13:05:12.879Z,7.57
2019-05-26T13:07:41.902Z,7.70
2019-05-26T13:10:20.097Z,6.23
2019-05-26T13:12:49.438Z,7.17
2019-05-26T13:15:20.095Z,8.20
2019-05-26T13:17:49.768Z,6.97
2019-05-26T13:20:19.470Z,7.10
2019-05-26T13:22:49.604Z,7.20
2019-05-26T13:25:19.268Z,5.70
2019-05-26T13:27:48.990Z,7.13
2019-05-26T13:30:24.006Z,7.17
2019-05-26T13:32:54.489Z,6.30
2019-05-26T13:35:23.602Z,6.13
2019-05-26T13:37:52.755Z,6.90
2019-05-26T13:40:22.381Z,6.07
2019-05-26T13:42:51.931Z,5.90
2019-05-26T13:45:23.427Z,4.83
2019-05-26T13:47:53.105Z,4.30
2019-05-26T13:50:23.790Z,3.43
2019-05-26T13:52:53.310Z,4.30
2019-05-26T13:55:28.005Z,4.13
2019-05-26T13:57:58.219Z,5.87
2019-05-26T14:00:27.578Z,5.23
2019-05-26T14:02:57.136Z,5.77
2019-05-26T14:05:26.308Z,5.30
2019-05-26T14:07:55.823Z,5.80
2019-05-26T14:10:37.453Z,6.20
2019-05-26T14:13:07.883Z,6.93
2019-05-26T14:15:39.021Z,5.93
2019-05-26T14:18:29.351Z,6.90
2019-05-26T14:20:58.708Z,5.83
2019-05-26T14:23:27.854Z,5.53
2019-05-26T14:25:56.863Z,5.57
2019-05-26T14:28:26.195Z,5.77
2019-05-26T14:30:55.561Z,5.40
2019-05-26T14:33:24.791Z,5.37
2019-05-26T14:35:54.157Z,5.67
2019-05-26T14:38:24.052Z,4.60
2019-05-26T14:40:52.952Z,4.47
2019-05-26T14:43:22.159Z,5.00
2019-05-26T14:45:53.614Z,4.80
2019-05-26T14:48:23.537Z,4.97
2019-05-26T14:50:52.829Z,4.43
2019-05-26T14:53:22.217Z,4.70
2019-05-26T14:55:52.083Z,5.00
2019-05-26T14:58:22.111Z,4.33
2019-05-26T15:00:51.029Z,4.77
2019-05-26T15:03:20.159Z,4.80
2019-05-26T15:05:57.457Z,4.90
2019-05-26T15:08:20.026Z,4.00
2019-05-26T15:10:49.351Z,4.20
2019-05-26T15:13:18.543Z,4.10
2019-05-26T15:15:47.821Z,4.70
2019-05-26T15:18:17.049Z,4.97
2019-05-26T15:20:47.440Z,6.00
2019-05-26T15:23:16.635Z,4.47
2019-05-26T15:25:45.725Z,4.93
2019-05-26T15:28:14.746Z,4.10
2019-05-26T15:30:44.019Z,4.33
2019-05-26T15:33:14.004Z,4.10
2019-05-26T15:35:44.912Z,3.73
2019-05-26T15:38:13.883Z,4.40
2019-05-26T15:40:42.851Z,3.73
2019-05-26T15:43:11.838Z,4.47
2019-05-26T15:45:40.947Z,3.97
2019-05-26T15:48:10.444Z,3.67
2019-05-26T15:50:39.526Z,3.33
2019-05-26T15:53:08.731Z,3.37
2019-05-26T15:55:40.067Z,3.13
2019-05-26T15:58:13.293Z,2.80
2019-05-26T16:00:42.505Z,3.23
2019-05-26T16:03:13.180Z,2.43
2019-05-26T16:05:42.436Z,2.70
2019-05-26T16:08:11.509Z,3.20
2019-05-26T16:10:42.960Z,2.60
2019-05-26T16:13:11.828Z,3.27
2019-05-26T16:15:41.831Z,2.90
2019-05-26T16:18:11.365Z,2.43
2019-05-26T16:20:40.667Z,2.70
2019-05-26T16:23:10.016Z,2.27
2019-05-26T16:25:39.463Z,2.63
2019-05-26T16:28:08.848Z,3.10
2019-05-26T16:30:38.107Z,3.07
2019-05-26T16:33:07.182Z,3.20
2019-05-26T16:35:36.313Z,2.67
2019-05-26T16:38:05.361Z,3.47
2019-05-26T16:40:34.851Z,2.57
2019-05-26T16:43:04.187Z,2.50
2019-05-26T16:45:36.908Z,2.97
2019-05-26T16:48:08.571Z,2.90
2019-05-26T16:50:40.369Z,3.30
2019-05-26T16:53:09.547Z,2.70
2019-05-26T16:55:38.727Z,3.60
2019-05-26T16:58:07.928Z,3.10
2019-05-26T17:00:36.904Z,3.37
2019-05-26T17:03:07.457Z,3.07
2019-05-26T17:05:36.917Z,2.90
2019-05-26T17:08:06.213Z,2.80
2019-05-26T17:10:35.334Z,3.40
2019-05-26T17:13:04.370Z,2.70
2019-05-26T17:15:35.789Z,2.37
2019-05-26T17:18:04.714Z,2.87
2019-05-26T17:20:34.000Z,2.80
2019-05-26T17:23:03.387Z,2.20
2019-05-26T17:25:32.690Z,2.73
2019-05-26T17:28:02.010Z,2.27
2019-05-26T17:30:31.300Z,2.53
2019-05-26T17:33:00.782Z,3.20
2019-05-26T17:35:29.901Z,2.90
2019-05-26T17:37:58.986Z,2.50
2019-05-26T17:40:28.267Z,2.60
2019-05-26T17:42:57.726Z,2.37
2019-05-26T17:45:26.678Z,2.50
2019-05-26T17:47:55.905Z,2.60
2019-05-26T17:50:25.100Z,2.23
2019-05-26T17:52:54.834Z,2.80
2019-05-26T17:55:24.074Z,2.80
2019-05-26T17:57:53.283Z,3.07
2019-05-26T18:00:22.254Z,2.57
2019-05-26T18:02:51.754Z,2.70
2019-05-26T18:05:20.884Z,3.00
2019-05-26T18:07:50.186Z,2.40
2019-05-26T18:10:19.471Z,2.23
2019-05-26T18:12:48.786Z,2.47
2019-05-26T18:15:18.222Z,2.50
2019-05-26T18:17:47.929Z,2.17
2019-05-26T18:22:54.295Z,1.90
2019-05-26T18:28:04.531Z,2.30
2019-05-26T18:30:33.724Z,2.10
2019-05-26T18:33:02.916Z,2.13
2019-05-26T18:35:32.149Z,2.13
2019-05-26T18:38:01.470Z,2.40
2019-05-26T18:40:30.742Z,1.67
2019-05-26T18:43:00.401Z,1.90
2019-05-26T18:45:29.417Z,1.73
2019-05-26T18:48:03.164Z,1.80
2019-05-26T18:50:29.677Z,1.90
2019-05-26T18:52:59.626Z,1.80
2019-05-26T18:55:28.762Z,1.63
2019-05-26T18:57:58.106Z,1.50
2019-05-26T19:00:30.814Z,1.77
2019-05-26T19:02:58.576Z,1.80
2019-05-26T19:05:34.530Z,1.73
2019-05-26T19:07:59.350Z,1.40
2019-05-26T19:10:28.327Z,1.60
2019-05-26T19:12:57.630Z,1.30
2019-05-26T19:15:26.887Z,1.83
2019-05-26T19:17:56.026Z,1.70
2019-05-26T19:20:25.067Z,1.53
2019-05-26T19:22:54.418Z,1.57
2019-05-26T19:25:23.423Z,1.70
2019-05-26T19:27:52.792Z,1.37
2019-05-26T19:30:22.224Z,1.40
2019-05-26T19:32:51.351Z,1.57
2019-05-26T19:35:20.450Z,1.80
2019-05-26T19:37:49.718Z,1.50
2019-05-26T19:40:19.017Z,1.50
2019-05-26T19:42:48.339Z,1.53
2019-05-26T19:45:17.424Z,1.27
2019-05-26T19:47:46.430Z,2.03
2019-05-26T19:50:15.995Z,1.77
2019-05-26T19:52:49.397Z,1.87
2019-05-26T19:55:16.539Z,1.60
2019-05-26T19:57:51.307Z,1.80
2019-05-26T20:00:22.033Z,1.77
2019-05-26T20:02:52.322Z,1.77
2019-05-26T20:05:22.420Z,1.40
2019-05-26T20:07:51.515Z,1.73
2019-05-26T20:10:20.508Z,1.80
2019-05-26T20:12:50.618Z,1.40
2019-05-26T20:15:20.019Z,1.80
2019-05-26T20:17:49.578Z,2.00
2019-05-26T20:20:19.990Z,1.63
2019-05-26T20:22:49.268Z,1.53
2019-05-26T20:25:26.623Z,1.57
2019-05-26T20:27:59.564Z,1.73
2019-05-26T20:30:28.546Z,1.30
2019-05-26T20:32:57.648Z,1.83
2019-05-26T20:35:26.663Z,1.43
2019-05-26T20:37:56.070Z,1.80
2019-05-26T20:40:25.131Z,1.73
2019-05-26T20:42:53.966Z,1.70
2019-05-26T20:45:23.722Z,1.60
2019-05-26T20:47:53.714Z,1.40
2019-05-26T20:50:29.147Z,1.63
2019-05-26T20:52:54.610Z,1.63
2019-05-26T20:55:23.662Z,1.53
2019-05-26T20:57:52.827Z,1.53
2019-05-26T21:00:22.088Z,1.50
2019-05-26T21:02:51.075Z,1.90
2019-05-26T21:05:20.631Z,1.70
2019-05-26T21:07:49.478Z,2.53
2019-05-26T21:10:19.518Z,1.70
2019-05-26T21:12:49.795Z,2.00
2019-05-26T21:15:19.115Z,1.87
2019-05-26T21:17:48.105Z,2.23
2019-05-26T21:20:17.450Z,1.90
2019-05-26T21:22:47.152Z,1.40
2019-05-26T21:25:16.892Z,2.30
2019-05-26T21:27:46.349Z,1.80
2019-05-26T21:30:17.054Z,2.00
2019-05-26T21:32:46.338Z,1.90
2019-05-26T21:35:15.474Z,2.40
2019-05-26T21:37:44.549Z,1.80
2019-05-26T21:40:14.051Z,2.00
2019-05-26T21:42:43.169Z,2.23
2019-05-26T21:45:12.514Z,2.23
2019-05-26T21:47:41.819Z,1.90
2019-05-26T21:50:11.041Z,1.90
2019-05-26T21:52:40.878Z,2.13
2019-05-26T21:55:11.004Z,1.63
2019-05-26T21:57:39.919Z,1.57
2019-05-26T22:00:11.279Z,1.50
2019-05-26T22:02:40.364Z,1.80
2019-05-26T22:05:09.237Z,1.50
2019-05-26T22:07:38.435Z,1.70
2019-05-26T22:10:07.743Z,1.87
2019-05-26T22:12:37.104Z,1.77
2019-05-26T22:17:44.971Z,1.53
2019-05-26T22:20:14.043Z,1.47
2019-05-26T22:22:43.155Z,1.67
2019-05-26T22:25:12.770Z,1.40
2019-05-26T22:27:41.854Z,1.83
2019-05-26T22:30:11.159Z,1.70
2019-05-26T22:32:40.412Z,1.20
2019-05-26T22:38:03.259Z,1.60
2019-05-26T22:40:32.615Z,1.30
2019-05-26T22:43:01.860Z,1.73
2019-05-26T22:45:31.244Z,1.70
2019-05-26T22:48:00.684Z,2.00
2019-05-26T22:50:30.135Z,1.50
2019-05-26T22:52:59.268Z,1.73
2019-05-26T22:55:29.838Z,1.83
2019-05-26T22:57:59.075Z,1.73
2019-05-26T23:00:28.179Z,2.07
2019-05-26T23:02:57.409Z,1.90
2019-05-26T23:05:26.770Z,1.57
2019-05-26T23:07:56.091Z,1.83
2019-05-26T23:10:25.384Z,1.90
2019-05-26T23:12:54.665Z,2.00
2019-05-26T23:15:24.361Z,2.03
2019-05-26T23:17:53.474Z,1.80
2019-05-26T23:20:23.755Z,2.23
2019-05-26T23:22:52.898Z,2.00
2019-05-26T23:25:22.072Z,2.10
2019-05-26T23:27:51.354Z,2.10
2019-05-26T23:30:21.094Z,2.40
2019-05-26T23:32:50.368Z,2.10
2019-05-26T23:35:19.584Z,1.90
2019-05-26T23:37:49.117Z,2.10
2019-05-26T23:40:18.197Z,2.10
2019-05-26T23:42:47.485Z,1.87
2019-05-26T23:45:17.976Z,1.93
2019-05-26T23:47:47.083Z,1.40
2019-05-26T23:50:16.271Z,1.73
2019-05-26T23:52:45.319Z,1.93
2019-05-26T23:55:14.611Z,1.47
2019-05-26T23:57:43.785Z,2.13
